sensor_id;sensor_type;location;lat;lon;timestamp;temperature;humidity
24384;DHT22;12504;52.870;8.798;2023-07-13T00:02:15;14.80;99.90
24384;DHT22;12504;52.870;8.798;2023-07-13T00:04:41;14.80;99.90
24384;DHT22;12504;52.870;8.798;2023-07-13T00:07:07;14.80;99.90
24384;DHT22;12504;52.870;8.798;2023-07-13T00:09:33;14.70;99.90
24384;DHT22;12504;52.870;8.798;2023-07-13T00:12:00;14.70;99.90
24384;DHT22;12504;52.870;8.798;2023-07-13T00:14:27;14.70;99.90
24384;DHT22;12504;52.870;8.798;2023-07-13T00:16:53;14.70;99.90
24384;DHT22;12504;52.870;8.798;2023-07-13T00:19:19;14.70;99.90
24384;DHT22;12504;52.870;8.798;2023-07-13T00:21:45;14.70;99.90
24384;DHT22;12504;52.870;8.798;2023-07-13T00:24:14;14.60;99.90
24384;DHT22;12504;52.870;8.798;2023-07-13T00:26:40;14.60;99.90
24384;DHT22;12504;52.870;8.798;2023-07-13T00:29:06;14.60;99.90
24384;DHT22;12504;52.870;8.798;2023-07-13T00:31:34;14.60;99.90
24384;DHT22;12504;52.870;8.798;2023-07-13T00:34:00;14.60;99.90
24384;DHT22;12504;52.870;8.798;2023-07-13T00:36:26;14.60;99.90
24384;DHT22;12504;52.870;8.798;2023-07-13T00:38:52;14.60;99.90
24384;DHT22;12504;52.870;8.798;2023-07-13T00:41:18;14.60;99.90
24384;DHT22;12504;52.870;8.798;2023-07-13T00:43:44;14.60;99.90
24384;DHT22;12504;52.870;8.798;2023-07-13T00:46:26;14.60;99.90
24384;DHT22;12504;52.870;8.798;2023-07-13T00:48:53;14.50;99.90
24384;DHT22;12504;52.870;8.798;2023-07-13T00:51:27;14.60;99.90
24384;DHT22;12504;52.870;8.798;2023-07-13T00:53:57;14.50;99.90
24384;DHT22;12504;52.870;8.798;2023-07-13T00:56:23;14.50;99.90
24384;DHT22;12504;52.870;8.798;2023-07-13T00:58:49;14.50;99.90
24384;DHT22;12504;52.870;8.798;2023-07-13T01:01:15;14.50;99.90
24384;DHT22;12504;52.870;8.798;2023-07-13T01:03:41;14.50;99.90
24384;DHT22;12504;52.870;8.798;2023-07-13T01:06:07;14.50;99.90
24384;DHT22;12504;52.870;8.798;2023-07-13T01:08:33;14.50;99.90
24384;DHT22;12504;52.870;8.798;2023-07-13T01:11:00;14.40;99.90
24384;DHT22;12504;52.870;8.798;2023-07-13T01:13:25;14.40;99.90
24384;DHT22;12504;52.870;8.798;2023-07-13T01:15:52;14.50;99.90
24384;DHT22;12504;52.870;8.798;2023-07-13T01:18:25;14.50;99.90
24384;DHT22;12504;52.870;8.798;2023-07-13T01:20:58;14.50;99.90
24384;DHT22;12504;52.870;8.798;2023-07-13T01:23:26;14.50;99.90
24384;DHT22;12504;52.870;8.798;2023-07-13T01:25:54;14.50;99.90
24384;DHT22;12504;52.870;8.798;2023-07-13T01:28:21;14.50;99.90
24384;DHT22;12504;52.870;8.798;2023-07-13T01:30:48;14.40;99.90
24384;DHT22;12504;52.870;8.798;2023-07-13T01:33:16;14.40;99.90
24384;DHT22;12504;52.870;8.798;2023-07-13T01:35:43;14.40;99.90
24384;DHT22;12504;52.870;8.798;2023-07-13T01:38:09;14.40;99.90
24384;DHT22;12504;52.870;8.798;2023-07-13T01:40:36;14.40;99.90
24384;DHT22;12504;52.870;8.798;2023-07-13T01:43:02;14.30;99.90
24384;DHT22;12504;52.870;8.798;2023-07-13T01:45:28;14.30;99.90
24384;DHT22;12504;52.870;8.798;2023-07-13T01:47:54;14.20;99.90
24384;DHT22;12504;52.870;8.798;2023-07-13T01:50:20;14.30;99.90
24384;DHT22;12504;52.870;8.798;2023-07-13T01:52:45;14.20;99.90
24384;DHT22;12504;52.870;8.798;2023-07-13T01:55:11;14.20;99.90
24384;DHT22;12504;52.870;8.798;2023-07-13T01:57:37;14.20;99.90
24384;DHT22;12504;52.870;8.798;2023-07-13T02:00:05;14.20;99.90
24384;DHT22;12504;52.870;8.798;2023-07-13T02:02:41;14.20;99.90
24384;DHT22;12504;52.870;8.798;2023-07-13T02:05:09;14.20;99.90
24384;DHT22;12504;52.870;8.798;2023-07-13T02:07:34;14.20;99.90
24384;DHT22;12504;52.870;8.798;2023-07-13T02:10:00;14.10;99.90
24384;DHT22;12504;52.870;8.798;2023-07-13T02:12:25;14.10;99.90
24384;DHT22;12504;52.870;8.798;2023-07-13T02:14:51;14.10;99.90
24384;DHT22;12504;52.870;8.798;2023-07-13T02:17:17;14.00;99.90
24384;DHT22;12504;52.870;8.798;2023-07-13T02:19:42;14.00;99.90
24384;DHT22;12504;52.870;8.798;2023-07-13T02:22:08;14.00;99.90
24384;DHT22;12504;52.870;8.798;2023-07-13T02:24:33;14.00;99.90
24384;DHT22;12504;52.870;8.798;2023-07-13T02:26:59;14.00;99.90
24384;DHT22;12504;52.870;8.798;2023-07-13T02:29:25;14.00;99.90
24384;DHT22;12504;52.870;8.798;2023-07-13T02:31:51;14.00;99.90
24384;DHT22;12504;52.870;8.798;2023-07-13T02:34:16;14.00;99.90
24384;DHT22;12504;52.870;8.798;2023-07-13T02:36:42;13.90;99.90
24384;DHT22;12504;52.870;8.798;2023-07-13T02:39:09;13.90;99.90
24384;DHT22;12504;52.870;8.798;2023-07-13T02:41:36;13.90;99.90
24384;DHT22;12504;52.870;8.798;2023-07-13T02:44:02;13.90;99.90
24384;DHT22;12504;52.870;8.798;2023-07-13T02:46:33;13.90;99.90
24384;DHT22;12504;52.870;8.798;2023-07-13T02:49:00;13.80;99.90
24384;DHT22;12504;52.870;8.798;2023-07-13T02:51:25;13.80;99.90
24384;DHT22;12504;52.870;8.798;2023-07-13T02:53:51;13.80;99.90
24384;DHT22;12504;52.870;8.798;2023-07-13T02:56:21;13.80;99.90
24384;DHT22;12504;52.870;8.798;2023-07-13T02:58:47;13.80;99.90
24384;DHT22;12504;52.870;8.798;2023-07-13T03:01:13;13.80;99.90
24384;DHT22;12504;52.870;8.798;2023-07-13T03:03:38;13.80;99.90
24384;DHT22;12504;52.870;8.798;2023-07-13T03:06:05;13.80;99.90
24384;DHT22;12504;52.870;8.798;2023-07-13T03:08:41;13.80;99.90
24384;DHT22;12504;52.870;8.798;2023-07-13T03:11:10;13.80;99.90
24384;DHT22;12504;52.870;8.798;2023-07-13T03:13:40;13.80;99.90
24384;DHT22;12504;52.870;8.798;2023-07-13T03:16:07;13.80;99.90
24384;DHT22;12504;52.870;8.798;2023-07-13T03:18:34;13.90;99.90
24384;DHT22;12504;52.870;8.798;2023-07-13T03:21:04;13.90;99.90
24384;DHT22;12504;52.870;8.798;2023-07-13T03:23:30;13.90;99.90
24384;DHT22;12504;52.870;8.798;2023-07-13T03:26:03;13.90;99.90
24384;DHT22;12504;52.870;8.798;2023-07-13T03:28:30;13.90;99.90
24384;DHT22;12504;52.870;8.798;2023-07-13T03:31:04;13.90;99.90
24384;DHT22;12504;52.870;8.798;2023-07-13T03:33:32;13.90;99.90
24384;DHT22;12504;52.870;8.798;2023-07-13T03:35:57;14.00;99.90
24384;DHT22;12504;52.870;8.798;2023-07-13T03:38:24;14.00;99.90
24384;DHT22;12504;52.870;8.798;2023-07-13T03:40:51;14.00;99.90
24384;DHT22;12504;52.870;8.798;2023-07-13T03:43:17;14.00;99.90
24384;DHT22;12504;52.870;8.798;2023-07-13T03:45:43;14.00;99.90
24384;DHT22;12504;52.870;8.798;2023-07-13T03:48:09;14.10;99.90
24384;DHT22;12504;52.870;8.798;2023-07-13T03:50:35;14.10;99.90
24384;DHT22;12504;52.870;8.798;2023-07-13T03:53:02;14.10;99.90
24384;DHT22;12504;52.870;8.798;2023-07-13T03:55:28;14.10;99.90
24384;DHT22;12504;52.870;8.798;2023-07-13T04:00:43;14.20;99.90
24384;DHT22;12504;52.870;8.798;2023-07-13T04:03:09;14.30;99.90
24384;DHT22;12504;52.870;8.798;2023-07-13T04:05:34;14.30;99.90
24384;DHT22;12504;52.870;8.798;2023-07-13T04:08:01;14.30;99.90
24384;DHT22;12504;52.870;8.798;2023-07-13T04:10:27;14.30;99.90
24384;DHT22;12504;52.870;8.798;2023-07-13T04:12:52;14.30;99.90
24384;DHT22;12504;52.870;8.798;2023-07-13T04:15:18;14.40;99.90
24384;DHT22;12504;52.870;8.798;2023-07-13T04:17:43;14.40;99.90
24384;DHT22;12504;52.870;8.798;2023-07-13T04:20:09;14.40;99.90
24384;DHT22;12504;52.870;8.798;2023-07-13T04:22:35;14.40;99.90
24384;DHT22;12504;52.870;8.798;2023-07-13T04:25:00;14.40;99.90
24384;DHT22;12504;52.870;8.798;2023-07-13T04:27:26;14.50;99.90
24384;DHT22;12504;52.870;8.798;2023-07-13T04:29:52;14.50;99.90
24384;DHT22;12504;52.870;8.798;2023-07-13T04:32:17;14.60;99.90
24384;DHT22;12504;52.870;8.798;2023-07-13T04:34:43;14.50;99.90
24384;DHT22;12504;52.870;8.798;2023-07-13T04:37:09;14.60;99.90
24384;DHT22;12504;52.870;8.798;2023-07-13T04:39:34;14.60;99.90
24384;DHT22;12504;52.870;8.798;2023-07-13T04:42:00;14.60;99.90
24384;DHT22;12504;52.870;8.798;2023-07-13T04:44:26;14.50;99.90
24384;DHT22;12504;52.870;8.798;2023-07-13T04:46:51;14.60;99.90
24384;DHT22;12504;52.870;8.798;2023-07-13T04:49:17;14.50;99.90
24384;DHT22;12504;52.870;8.798;2023-07-13T04:51:42;14.60;99.90
24384;DHT22;12504;52.870;8.798;2023-07-13T04:54:08;14.60;99.90
24384;DHT22;12504;52.870;8.798;2023-07-13T04:56:34;14.70;99.90
24384;DHT22;12504;52.870;8.798;2023-07-13T04:58:59;14.80;99.90
24384;DHT22;12504;52.870;8.798;2023-07-13T05:01:25;14.90;99.90
24384;DHT22;12504;52.870;8.798;2023-07-13T05:03:50;15.00;99.90
24384;DHT22;12504;52.870;8.798;2023-07-13T05:06:16;15.10;99.90
24384;DHT22;12504;52.870;8.798;2023-07-13T05:08:42;15.20;99.90
24384;DHT22;12504;52.870;8.798;2023-07-13T05:11:07;15.30;99.90
24384;DHT22;12504;52.870;8.798;2023-07-13T05:13:33;15.30;99.90
24384;DHT22;12504;52.870;8.798;2023-07-13T05:16:01;15.40;99.90
24384;DHT22;12504;52.870;8.798;2023-07-13T05:18:26;15.40;99.90
24384;DHT22;12504;52.870;8.798;2023-07-13T05:21:01;15.30;99.90
24384;DHT22;12504;52.870;8.798;2023-07-13T05:23:27;15.30;99.90
24384;DHT22;12504;52.870;8.798;2023-07-13T05:25:53;15.20;99.90
24384;DHT22;12504;52.870;8.798;2023-07-13T05:28:19;15.20;99.90
24384;DHT22;12504;52.870;8.798;2023-07-13T05:30:48;15.20;99.90
24384;DHT22;12504;52.870;8.798;2023-07-13T05:33:14;15.10;99.90
24384;DHT22;12504;52.870;8.798;2023-07-13T05:35:40;15.10;99.90
24384;DHT22;12504;52.870;8.798;2023-07-13T05:38:06;15.20;99.90
24384;DHT22;12504;52.870;8.798;2023-07-13T05:40:32;15.20;99.90
24384;DHT22;12504;52.870;8.798;2023-07-13T05:42:57;15.30;99.90
24384;DHT22;12504;52.870;8.798;2023-07-13T05:45:23;15.30;99.90
24384;DHT22;12504;52.870;8.798;2023-07-13T05:47:48;15.40;99.90
24384;DHT22;12504;52.870;8.798;2023-07-13T05:50:14;15.40;99.90
24384;DHT22;12504;52.870;8.798;2023-07-13T05:52:40;15.40;99.90
24384;DHT22;12504;52.870;8.798;2023-07-13T05:55:06;15.50;99.90
24384;DHT22;12504;52.870;8.798;2023-07-13T05:57:31;15.50;99.90
24384;DHT22;12504;52.870;8.798;2023-07-13T05:59:57;15.60;99.90
24384;DHT22;12504;52.870;8.798;2023-07-13T06:02:23;15.60;99.90
24384;DHT22;12504;52.870;8.798;2023-07-13T06:04:48;15.70;99.90
24384;DHT22;12504;52.870;8.798;2023-07-13T06:07:14;15.70;99.90
24384;DHT22;12504;52.870;8.798;2023-07-13T06:09:40;15.80;99.90
24384;DHT22;12504;52.870;8.798;2023-07-13T06:12:06;15.80;99.90
24384;DHT22;12504;52.870;8.798;2023-07-13T06:14:32;16.00;99.90
24384;DHT22;12504;52.870;8.798;2023-07-13T06:16:58;16.10;99.90
24384;DHT22;12504;52.870;8.798;2023-07-13T06:19:23;16.30;99.90
24384;DHT22;12504;52.870;8.798;2023-07-13T06:21:49;16.40;99.90
24384;DHT22;12504;52.870;8.798;2023-07-13T06:24:15;16.40;99.90
24384;DHT22;12504;52.870;8.798;2023-07-13T06:26:40;16.40;99.90
24384;DHT22;12504;52.870;8.798;2023-07-13T06:29:06;16.40;99.90
24384;DHT22;12504;52.870;8.798;2023-07-13T06:31:31;16.50;99.90
24384;DHT22;12504;52.870;8.798;2023-07-13T06:33:57;16.50;99.90
24384;DHT22;12504;52.870;8.798;2023-07-13T06:36:23;16.60;99.90
24384;DHT22;12504;52.870;8.798;2023-07-13T06:38:48;16.60;99.90
24384;DHT22;12504;52.870;8.798;2023-07-13T06:41:14;16.70;99.90
24384;DHT22;12504;52.870;8.798;2023-07-13T06:43:39;16.70;99.90
24384;DHT22;12504;52.870;8.798;2023-07-13T06:46:05;16.80;99.90
24384;DHT22;12504;52.870;8.798;2023-07-13T06:48:31;16.90;99.90
24384;DHT22;12504;52.870;8.798;2023-07-13T06:50:57;16.90;99.90
24384;DHT22;12504;52.870;8.798;2023-07-13T06:53:23;16.90;99.90
24384;DHT22;12504;52.870;8.798;2023-07-13T06:55:49;16.90;99.90
24384;DHT22;12504;52.870;8.798;2023-07-13T06:58:16;17.00;99.90
24384;DHT22;12504;52.870;8.798;2023-07-13T07:00:43;17.00;99.90
24384;DHT22;12504;52.870;8.798;2023-07-13T07:03:08;17.00;99.90
24384;DHT22;12504;52.870;8.798;2023-07-13T07:05:34;17.00;99.90
24384;DHT22;12504;52.870;8.798;2023-07-13T07:07:59;17.20;99.90
24384;DHT22;12504;52.870;8.798;2023-07-13T07:10:26;17.20;99.90
24384;DHT22;12504;52.870;8.798;2023-07-13T07:12:51;17.30;99.90
24384;DHT22;12504;52.870;8.798;2023-07-13T07:15:18;17.40;99.90
24384;DHT22;12504;52.870;8.798;2023-07-13T07:17:44;17.50;99.90
24384;DHT22;12504;52.870;8.798;2023-07-13T07:20:10;17.50;99.90
24384;DHT22;12504;52.870;8.798;2023-07-13T07:22:36;17.60;99.90
24384;DHT22;12504;52.870;8.798;2023-07-13T07:25:01;17.60;99.90
24384;DHT22;12504;52.870;8.798;2023-07-13T07:27:27;17.60;99.90
24384;DHT22;12504;52.870;8.798;2023-07-13T07:29:53;17.70;99.90
24384;DHT22;12504;52.870;8.798;2023-07-13T07:32:20;17.80;99.90
24384;DHT22;12504;52.870;8.798;2023-07-13T07:34:46;17.90;99.90
24384;DHT22;12504;52.870;8.798;2023-07-13T07:37:13;17.90;99.90
24384;DHT22;12504;52.870;8.798;2023-07-13T07:39:39;18.00;99.90
24384;DHT22;12504;52.870;8.798;2023-07-13T07:42:05;18.10;99.90
24384;DHT22;12504;52.870;8.798;2023-07-13T07:44:32;18.20;99.90
24384;DHT22;12504;52.870;8.798;2023-07-13T07:46:58;18.20;99.90
24384;DHT22;12504;52.870;8.798;2023-07-13T07:49:24;18.10;99.90
24384;DHT22;12504;52.870;8.798;2023-07-13T07:51:50;18.20;99.90
24384;DHT22;12504;52.870;8.798;2023-07-13T07:54:16;18.30;99.90
24384;DHT22;12504;52.870;8.798;2023-07-13T07:56:42;18.40;99.90
24384;DHT22;12504;52.870;8.798;2023-07-13T07:59:07;18.50;99.90
24384;DHT22;12504;52.870;8.798;2023-07-13T08:01:33;18.60;99.90
24384;DHT22;12504;52.870;8.798;2023-07-13T08:03:59;18.50;99.90
24384;DHT22;12504;52.870;8.798;2023-07-13T08:06:24;18.60;99.90
24384;DHT22;12504;52.870;8.798;2023-07-13T08:08:56;18.70;99.90
24384;DHT22;12504;52.870;8.798;2023-07-13T08:11:22;19.00;99.90
24384;DHT22;12504;52.870;8.798;2023-07-13T08:13:49;19.30;99.90
24384;DHT22;12504;52.870;8.798;2023-07-13T08:16:15;19.40;99.90
24384;DHT22;12504;52.870;8.798;2023-07-13T08:18:40;19.30;99.90
24384;DHT22;12504;52.870;8.798;2023-07-13T08:21:07;19.00;99.90
24384;DHT22;12504;52.870;8.798;2023-07-13T08:23:34;19.20;99.90
24384;DHT22;12504;52.870;8.798;2023-07-13T08:26:00;19.20;99.90
24384;DHT22;12504;52.870;8.798;2023-07-13T08:28:27;19.30;99.90
24384;DHT22;12504;52.870;8.798;2023-07-13T08:30:53;19.40;99.90
24384;DHT22;12504;52.870;8.798;2023-07-13T08:33:20;19.20;99.90
24384;DHT22;12504;52.870;8.798;2023-07-13T08:35:47;19.30;99.90
24384;DHT22;12504;52.870;8.798;2023-07-13T08:38:14;19.40;99.90
24384;DHT22;12504;52.870;8.798;2023-07-13T08:40:40;19.50;99.90
24384;DHT22;12504;52.870;8.798;2023-07-13T08:43:12;19.60;99.90
24384;DHT22;12504;52.870;8.798;2023-07-13T08:46:02;19.60;99.90
24384;DHT22;12504;52.870;8.798;2023-07-13T08:48:44;19.70;99.90
24384;DHT22;12504;52.870;8.798;2023-07-13T08:51:19;19.60;99.90
24384;DHT22;12504;52.870;8.798;2023-07-13T08:53:49;19.60;99.90
24384;DHT22;12504;52.870;8.798;2023-07-13T08:56:22;19.90;99.90
24384;DHT22;12504;52.870;8.798;2023-07-13T08:58:53;20.20;99.90
24384;DHT22;12504;52.870;8.798;2023-07-13T09:09:36;20.60;99.90
24384;DHT22;12504;52.870;8.798;2023-07-13T09:14:51;20.60;99.90
24384;DHT22;12504;52.870;8.798;2023-07-13T09:17:23;20.60;99.90
24384;DHT22;12504;52.870;8.798;2023-07-13T09:20:42;20.50;99.90
24384;DHT22;12504;52.870;8.798;2023-07-13T09:22:40;20.50;99.90
24384;DHT22;12504;52.870;8.798;2023-07-13T09:27:38;20.50;99.90
24384;DHT22;12504;52.870;8.798;2023-07-13T09:32:41;20.80;99.90
24384;DHT22;12504;52.870;8.798;2023-07-13T09:35:14;21.10;99.90
24384;DHT22;12504;52.870;8.798;2023-07-13T09:37:43;21.30;99.90
24384;DHT22;12504;52.870;8.798;2023-07-13T09:40:21;21.30;99.90
24384;DHT22;12504;52.870;8.798;2023-07-13T09:42:55;21.30;99.90
24384;DHT22;12504;52.870;8.798;2023-07-13T09:45:28;21.20;99.90
24384;DHT22;12504;52.870;8.798;2023-07-13T09:48:03;21.20;99.90
24384;DHT22;12504;52.870;8.798;2023-07-13T09:50:29;21.20;99.90
24384;DHT22;12504;52.870;8.798;2023-07-13T09:52:55;21.50;99.90
24384;DHT22;12504;52.870;8.798;2023-07-13T09:55:37;21.80;99.90
24384;DHT22;12504;52.870;8.798;2023-07-13T09:58:14;21.80;99.90
24384;DHT22;12504;52.870;8.798;2023-07-13T10:00:41;21.90;96.20
24384;DHT22;12504;52.870;8.798;2023-07-13T10:03:35;22.00;99.90
24384;DHT22;12504;52.870;8.798;2023-07-13T10:06:17;21.70;95.00
24384;DHT22;12504;52.870;8.798;2023-07-13T10:08:45;21.30;98.10
24384;DHT22;12504;52.870;8.798;2023-07-13T10:11:29;21.40;99.90
24384;DHT22;12504;52.870;8.798;2023-07-13T10:14:09;21.80;99.90
24384;DHT22;12504;52.870;8.798;2023-07-13T10:16:36;22.20;92.00
24384;DHT22;12504;52.870;8.798;2023-07-13T10:19:06;22.20;40.10
24384;DHT22;12504;52.870;8.798;2023-07-13T10:21:39;22.00;33.40
24384;DHT22;12504;52.870;8.798;2023-07-13T10:24:16;21.90;96.00
24384;DHT22;12504;52.870;8.798;2023-07-13T10:26:52;22.00;81.10
24384;DHT22;12504;52.870;8.798;2023-07-13T10:29:22;22.20;91.80
24384;DHT22;12504;52.870;8.798;2023-07-13T10:31:49;22.30;70.60
24384;DHT22;12504;52.870;8.798;2023-07-13T10:34:15;22.20;35.20
24384;DHT22;12504;52.870;8.798;2023-07-13T10:36:47;22.40;15.10
24384;DHT22;12504;52.870;8.798;2023-07-13T10:39:19;22.30;7.00
24384;DHT22;12504;52.870;8.798;2023-07-13T10:41:50;21.90;46.50
24384;DHT22;12504;52.870;8.798;2023-07-13T10:44:28;21.80;42.70
24384;DHT22;12504;52.870;8.798;2023-07-13T10:46:57;21.60;83.80
24384;DHT22;12504;52.870;8.798;2023-07-13T10:49:25;22.10;40.40
24384;DHT22;12504;52.870;8.798;2023-07-13T10:51:52;22.10;43.50
24384;DHT22;12504;52.870;8.798;2023-07-13T10:54:32;23.10;1.40
24384;DHT22;12504;52.870;8.798;2023-07-13T10:57:31;24.80;1.00
24384;DHT22;12504;52.870;8.798;2023-07-13T11:02:28;24.40;1.00
24384;DHT22;12504;52.870;8.798;2023-07-13T11:04:57;24.80;99.90
24384;DHT22;12504;52.870;8.798;2023-07-13T11:07:26;25.80;99.90
24384;DHT22;12504;52.870;8.798;2023-07-13T11:09:56;26.40;99.90
24384;DHT22;12504;52.870;8.798;2023-07-13T11:19:51;27.00;99.90
24384;DHT22;12504;52.870;8.798;2023-07-13T11:22:25;27.10;99.90
24384;DHT22;12504;52.870;8.798;2023-07-13T11:25:25;26.60;99.90
24384;DHT22;12504;52.870;8.798;2023-07-13T11:33:18;24.20;1.00
24384;DHT22;12504;52.870;8.798;2023-07-13T11:38:35;24.50;1.00
24384;DHT22;12504;52.870;8.798;2023-07-13T11:41:05;23.30;1.00
24384;DHT22;12504;52.870;8.798;2023-07-13T11:43:32;22.20;19.80
24384;DHT22;12504;52.870;8.798;2023-07-13T11:46:23;21.20;92.90
24384;DHT22;12504;52.870;8.798;2023-07-13T11:48:49;20.40;99.90
24384;DHT22;12504;52.870;8.798;2023-07-13T11:51:28;19.80;99.90
24384;DHT22;12504;52.870;8.798;2023-07-13T11:54:13;19.20;99.90
24384;DHT22;12504;52.870;8.798;2023-07-13T11:56:42;18.30;99.90
24384;DHT22;12504;52.870;8.798;2023-07-13T11:59:11;17.40;99.90
24384;DHT22;12504;52.870;8.798;2023-07-13T12:01:44;16.30;99.90
24384;DHT22;12504;52.870;8.798;2023-07-13T12:04:38;16.00;99.90
24384;DHT22;12504;52.870;8.798;2023-07-13T12:07:15;15.60;99.90
24384;DHT22;12504;52.870;8.798;2023-07-13T12:13:04;15.10;99.90
24384;DHT22;12504;52.870;8.798;2023-07-13T12:15:46;15.00;99.90
24384;DHT22;12504;52.870;8.798;2023-07-13T12:18:19;15.00;99.90
24384;DHT22;12504;52.870;8.798;2023-07-13T12:20:50;15.00;99.90
24384;DHT22;12504;52.870;8.798;2023-07-13T12:23:24;14.90;99.90
24384;DHT22;12504;52.870;8.798;2023-07-13T12:25:54;14.90;99.90
24384;DHT22;12504;52.870;8.798;2023-07-13T12:28:44;14.80;99.90
24384;DHT22;12504;52.870;8.798;2023-07-13T12:31:33;14.90;99.90
24384;DHT22;12504;52.870;8.798;2023-07-13T12:36:46;14.80;99.90
24384;DHT22;12504;52.870;8.798;2023-07-13T12:39:23;14.80;99.90
24384;DHT22;12504;52.870;8.798;2023-07-13T12:41:51;14.80;99.90
24384;DHT22;12504;52.870;8.798;2023-07-13T12:44:22;14.80;99.90
24384;DHT22;12504;52.870;8.798;2023-07-13T12:46:58;14.90;99.90
24384;DHT22;12504;52.870;8.798;2023-07-13T12:49:27;14.80;99.90
24384;DHT22;12504;52.870;8.798;2023-07-13T12:52:01;14.90;99.90
24384;DHT22;12504;52.870;8.798;2023-07-13T12:54:31;14.90;99.90
24384;DHT22;12504;52.870;8.798;2023-07-13T12:57:00;15.00;99.90
24384;DHT22;12504;52.870;8.798;2023-07-13T12:59:32;15.20;99.90
24384;DHT22;12504;52.870;8.798;2023-07-13T13:02:02;15.40;99.90
24384;DHT22;12504;52.870;8.798;2023-07-13T13:04:34;15.60;99.90
24384;DHT22;12504;52.870;8.798;2023-07-13T13:07:08;16.00;99.90
24384;DHT22;12504;52.870;8.798;2023-07-13T13:09:34;16.50;99.90
24384;DHT22;12504;52.870;8.798;2023-07-13T13:12:00;16.90;99.90
24384;DHT22;12504;52.870;8.798;2023-07-13T13:14:26;17.10;99.90
24384;DHT22;12504;52.870;8.798;2023-07-13T13:16:52;17.30;99.90
24384;DHT22;12504;52.870;8.798;2023-07-13T13:19:24;17.40;99.90
24384;DHT22;12504;52.870;8.798;2023-07-13T13:21:50;17.50;99.90
24384;DHT22;12504;52.870;8.798;2023-07-13T13:24:23;17.50;99.90
24384;DHT22;12504;52.870;8.798;2023-07-13T13:26:50;17.40;99.90
24384;DHT22;12504;52.870;8.798;2023-07-13T13:29:19;17.40;99.90
24384;DHT22;12504;52.870;8.798;2023-07-13T13:31:47;17.20;99.90
24384;DHT22;12504;52.870;8.798;2023-07-13T13:34:17;16.90;99.90
24384;DHT22;12504;52.870;8.798;2023-07-13T13:36:43;16.60;99.90
24384;DHT22;12504;52.870;8.798;2023-07-13T13:39:26;16.30;99.90
24384;DHT22;12504;52.870;8.798;2023-07-13T13:41:54;16.10;99.90
24384;DHT22;12504;52.870;8.798;2023-07-13T13:44:21;16.00;99.90
24384;DHT22;12504;52.870;8.798;2023-07-13T13:46:56;16.00;99.90
24384;DHT22;12504;52.870;8.798;2023-07-13T13:49:25;16.10;99.90
24384;DHT22;12504;52.870;8.798;2023-07-13T13:51:52;16.20;99.90
24384;DHT22;12504;52.870;8.798;2023-07-13T13:54:19;16.40;99.90
24384;DHT22;12504;52.870;8.798;2023-07-13T13:56:48;16.70;99.90
24384;DHT22;12504;52.870;8.798;2023-07-13T13:59:17;17.10;99.90
24384;DHT22;12504;52.870;8.798;2023-07-13T14:01:45;17.50;99.90
24384;DHT22;12504;52.870;8.798;2023-07-13T14:04:17;17.70;99.90
24384;DHT22;12504;52.870;8.798;2023-07-13T14:06:44;18.10;99.90
24384;DHT22;12504;52.870;8.798;2023-07-13T14:09:16;18.40;99.90
24384;DHT22;12504;52.870;8.798;2023-07-13T14:11:44;18.70;99.90
24384;DHT22;12504;52.870;8.798;2023-07-13T14:14:16;18.80;99.90
24384;DHT22;12504;52.870;8.798;2023-07-13T14:16:45;18.70;99.90
24384;DHT22;12504;52.870;8.798;2023-07-13T14:19:22;18.80;99.90
24384;DHT22;12504;52.870;8.798;2023-07-13T14:21:54;18.90;99.90
24384;DHT22;12504;52.870;8.798;2023-07-13T14:24:25;19.00;99.90
24384;DHT22;12504;52.870;8.798;2023-07-13T14:27:01;19.10;99.90
24384;DHT22;12504;52.870;8.798;2023-07-13T14:29:26;19.50;99.90
24384;DHT22;12504;52.870;8.798;2023-07-13T14:31:53;20.20;99.90
24384;DHT22;12504;52.870;8.798;2023-07-13T14:34:19;20.90;99.90
24384;DHT22;12504;52.870;8.798;2023-07-13T14:37:11;20.70;99.90
24384;DHT22;12504;52.870;8.798;2023-07-13T14:39:38;20.70;99.90
24384;DHT22;12504;52.870;8.798;2023-07-13T14:42:30;21.00;99.90
24384;DHT22;12504;52.870;8.798;2023-07-13T14:45:19;21.70;99.90
24384;DHT22;12504;52.870;8.798;2023-07-13T14:47:51;22.00;99.90
24384;DHT22;12504;52.870;8.798;2023-07-13T14:50:24;22.10;99.90
24384;DHT22;12504;52.870;8.798;2023-07-13T14:52:55;22.50;99.90
24384;DHT22;12504;52.870;8.798;2023-07-13T14:55:21;22.60;99.90
24384;DHT22;12504;52.870;8.798;2023-07-13T14:57:47;22.50;99.90
24384;DHT22;12504;52.870;8.798;2023-07-13T15:00:18;22.50;99.90
24384;DHT22;12504;52.870;8.798;2023-07-13T15:02:52;22.90;99.90
24384;DHT22;12504;52.870;8.798;2023-07-13T15:05:28;23.20;99.90
24384;DHT22;12504;52.870;8.798;2023-07-13T15:08:00;23.50;99.90
24384;DHT22;12504;52.870;8.798;2023-07-13T15:10:29;23.70;99.90
24384;DHT22;12504;52.870;8.798;2023-07-13T15:13:00;23.80;99.90
24384;DHT22;12504;52.870;8.798;2023-07-13T15:15:31;24.00;99.90
24384;DHT22;12504;52.870;8.798;2023-07-13T15:17:59;23.30;99.90
24384;DHT22;12504;52.870;8.798;2023-07-13T15:20:33;22.70;99.90
24384;DHT22;12504;52.870;8.798;2023-07-13T15:23:01;22.20;99.90
24384;DHT22;12504;52.870;8.798;2023-07-13T15:25:29;22.20;99.90
24384;DHT22;12504;52.870;8.798;2023-07-13T15:27:56;22.00;99.90
24384;DHT22;12504;52.870;8.798;2023-07-13T15:30:33;21.90;99.90
24384;DHT22;12504;52.870;8.798;2023-07-13T15:33:38;21.70;99.90
24384;DHT22;12504;52.870;8.798;2023-07-13T15:35:59;21.70;99.90
24384;DHT22;12504;52.870;8.798;2023-07-13T15:38:28;21.40;99.90
24384;DHT22;12504;52.870;8.798;2023-07-13T15:40:55;21.20;99.90
24384;DHT22;12504;52.870;8.798;2023-07-13T15:43:22;21.10;99.90
24384;DHT22;12504;52.870;8.798;2023-07-13T15:45:49;20.80;99.90
24384;DHT22;12504;52.870;8.798;2023-07-13T15:48:24;20.50;99.90
24384;DHT22;12504;52.870;8.798;2023-07-13T15:50:52;20.40;99.90
24384;DHT22;12504;52.870;8.798;2023-07-13T15:53:27;20.30;99.90
24384;DHT22;12504;52.870;8.798;2023-07-13T15:55:54;20.30;99.90
24384;DHT22;12504;52.870;8.798;2023-07-13T15:58:21;20.30;99.90
24384;DHT22;12504;52.870;8.798;2023-07-13T16:00:47;20.20;99.90
24384;DHT22;12504;52.870;8.798;2023-07-13T16:03:20;20.20;99.90
24384;DHT22;12504;52.870;8.798;2023-07-13T16:05:46;20.20;99.90
24384;DHT22;12504;52.870;8.798;2023-07-13T16:08:42;20.10;99.90
24384;DHT22;12504;52.870;8.798;2023-07-13T16:11:16;20.00;99.90
24384;DHT22;12504;52.870;8.798;2023-07-13T16:13:44;19.90;99.90
24384;DHT22;12504;52.870;8.798;2023-07-13T16:16:11;19.70;99.90
24384;DHT22;12504;52.870;8.798;2023-07-13T16:18:37;19.80;99.90
24384;DHT22;12504;52.870;8.798;2023-07-13T16:21:09;19.80;99.90
24384;DHT22;12504;52.870;8.798;2023-07-13T16:23:36;19.70;99.90
24384;DHT22;12504;52.870;8.798;2023-07-13T16:26:03;19.80;99.90